createdAt,value
2018-10-09T00:00:43.368Z,10.09
2018-10-09T00:03:48.277Z,10.17
2018-10-09T00:06:52.884Z,10.13
2018-10-09T00:09:57.475Z,10.13
2018-10-09T00:13:02.079Z,10.11
2018-10-09T00:16:06.790Z,10.03
2018-10-09T00:19:11.601Z,10.00
2018-10-09T00:22:16.507Z,9.91
2018-10-09T00:25:21.076Z,9.88
2018-10-09T00:28:25.780Z,9.88
2018-10-09T00:31:30.340Z,9.93
2018-10-09T00:34:34.981Z,9.88
2018-10-09T00:37:39.596Z,9.71
2018-10-09T00:40:44.346Z,9.67
2018-10-09T00:43:49.032Z,9.69
2018-10-09T00:46:53.669Z,9.65
2018-10-09T00:49:58.389Z,9.64
2018-10-09T00:53:03.069Z,9.66
2018-10-09T00:56:07.939Z,9.64
2018-10-09T00:59:12.702Z,9.63
2018-10-09T01:02:17.386Z,9.66
2018-10-09T01:05:22.302Z,9.69
2018-10-09T01:08:26.900Z,9.60
2018-10-09T01:11:31.698Z,9.53
2018-10-09T01:14:36.386Z,9.48
2018-10-09T01:17:40.950Z,9.45
2018-10-09T01:20:45.557Z,9.46
2018-10-09T01:23:50.215Z,9.47
2018-10-09T01:26:55.112Z,9.43
2018-10-09T01:29:59.821Z,9.40
2018-10-09T01:33:05.158Z,9.42
2018-10-09T01:36:10.065Z,9.51
2018-10-09T01:39:14.626Z,9.58
2018-10-09T01:42:19.322Z,9.66
2018-10-09T01:45:23.948Z,9.67
2018-10-09T01:48:28.629Z,9.60
2018-10-09T01:51:33.392Z,9.63
2018-10-09T01:54:37.932Z,9.59
2018-10-09T01:57:42.541Z,9.52
2018-10-09T02:00:47.310Z,9.51
2018-10-09T02:03:51.901Z,9.53
2018-10-09T02:06:56.773Z,9.46
2018-10-09T02:10:01.339Z,9.52
2018-10-09T02:13:06.041Z,9.60
2018-10-09T02:16:10.918Z,9.55
2018-10-09T02:19:15.598Z,9.54
2018-10-09T02:22:20.276Z,9.52
2018-10-09T02:25:24.803Z,9.59
2018-10-09T02:28:29.390Z,9.54
2018-10-09T02:31:34.061Z,9.51
2018-10-09T02:34:38.707Z,9.50
2018-10-09T02:37:43.886Z,9.51
2018-10-09T02:40:48.492Z,9.50
2018-10-09T02:43:53.279Z,9.55
2018-10-09T02:46:57.920Z,9.53
2018-10-09T02:50:02.670Z,9.46
2018-10-09T02:53:07.469Z,9.51
2018-10-09T02:56:12.051Z,9.53
2018-10-09T02:59:16.737Z,9.58
2018-10-09T03:02:21.467Z,9.45
2018-10-09T03:05:26.111Z,9.48
2018-10-09T03:08:30.873Z,9.52
2018-10-09T03:11:35.349Z,9.45
2018-10-09T03:14:39.974Z,9.37
2018-10-09T03:17:44.498Z,9.24
2018-10-09T03:20:49.336Z,9.34
2018-10-09T03:23:53.970Z,9.31
2018-10-09T03:26:58.530Z,9.26
2018-10-09T03:30:03.077Z,9.25
2018-10-09T03:33:07.729Z,9.22
2018-10-09T03:36:12.524Z,9.26
2018-10-09T03:39:17.120Z,9.26
2018-10-09T03:42:21.804Z,9.23
2018-10-09T03:45:26.408Z,9.22
2018-10-09T03:48:30.972Z,9.30
2018-10-09T03:51:36.230Z,9.38
2018-10-09T03:54:40.864Z,9.26
2018-10-09T03:57:45.448Z,9.21
2018-10-09T04:00:50.030Z,9.20
2018-10-09T04:03:54.805Z,9.21
2018-10-09T04:06:59.581Z,9.11
2018-10-09T04:10:04.237Z,9.12
2018-10-09T04:13:08.817Z,9.15
2018-10-09T04:16:13.536Z,9.18
2018-10-09T04:19:18.136Z,9.17
2018-10-09T04:22:23.830Z,9.19
2018-10-09T04:25:28.402Z,9.24
2018-10-09T04:28:33.083Z,9.08
2018-10-09T04:31:37.782Z,9.07
2018-10-09T04:34:42.359Z,9.00
2018-10-09T04:37:46.947Z,8.86
2018-10-09T04:40:51.572Z,8.87
2018-10-09T04:43:56.229Z,8.86
2018-10-09T04:47:00.838Z,8.83
2018-10-09T04:50:05.796Z,8.73
2018-10-09T04:53:10.958Z,8.74
2018-10-09T04:56:16.032Z,8.82
2018-10-09T04:59:20.647Z,8.71
2018-10-09T05:02:25.812Z,8.82
2018-10-09T05:05:30.670Z,8.81
2018-10-09T05:08:35.488Z,8.69
2018-10-09T05:11:40.213Z,8.65
2018-10-09T05:14:45.133Z,8.72
2018-10-09T05:17:49.787Z,8.76
2018-10-09T05:20:54.564Z,8.74
2018-10-09T05:23:59.654Z,8.79
2018-10-09T05:27:04.290Z,8.81
2018-10-09T05:30:09.332Z,8.76
2018-10-09T05:33:14.238Z,8.74
2018-10-09T05:36:18.851Z,8.70
2018-10-09T05:39:23.553Z,8.82
2018-10-09T05:42:28.539Z,8.97
2018-10-09T05:45:37.194Z,8.91
2018-10-09T05:48:42.324Z,8.90
2018-10-09T05:51:47.085Z,8.93
2018-10-09T05:54:51.897Z,8.98
2018-10-09T05:57:56.565Z,9.16
2018-10-09T06:01:08.381Z,9.17
2018-10-09T06:04:16.470Z,9.18
2018-10-09T06:07:21.199Z,9.18
2018-10-09T06:10:25.983Z,9.23
2018-10-09T06:13:30.889Z,9.19
2018-10-09T06:16:35.555Z,9.23
2018-10-09T06:19:47.133Z,9.29
2018-10-09T06:22:52.712Z,9.14
2018-10-09T06:25:57.319Z,9.19
2018-10-09T06:29:03.259Z,9.37
2018-10-09T06:32:07.910Z,9.33
2018-10-09T06:35:12.630Z,9.28
2018-10-09T06:38:17.439Z,9.27
2018-10-09T06:41:22.601Z,9.27
2018-10-09T06:44:27.235Z,9.42
2018-10-09T06:47:32.202Z,9.46
2018-10-09T06:50:36.829Z,9.48
2018-10-09T06:53:41.776Z,9.61
2018-10-09T06:56:46.448Z,9.69
2018-10-09T06:59:51.154Z,9.69
2018-10-09T07:02:55.849Z,9.84
2018-10-09T07:06:00.826Z,9.86
2018-10-09T07:09:10.404Z,9.98
2018-10-09T07:12:15.156Z,10.18
2018-10-09T07:15:19.911Z,10.17
2018-10-09T07:18:24.680Z,10.21
2018-10-09T07:21:29.301Z,10.31
2018-10-09T07:24:34.138Z,10.27
2018-10-09T07:27:38.858Z,10.34
2018-10-09T07:30:43.560Z,10.37
2018-10-09T07:33:48.394Z,10.26
2018-10-09T07:36:53.055Z,10.47
2018-10-09T07:39:57.839Z,10.70
2018-10-09T07:43:03.425Z,10.68
2018-10-09T07:46:08.263Z,10.52
2018-10-09T07:49:13.167Z,10.56
2018-10-09T07:52:18.073Z,10.77
2018-10-09T07:55:22.736Z,10.81
2018-10-09T07:58:27.303Z,10.76
2018-10-09T08:01:31.919Z,10.97
2018-10-09T08:04:36.699Z,11.20
2018-10-09T08:07:41.253Z,11.23
2018-10-09T08:10:46.239Z,11.21
2018-10-09T08:13:51.226Z,11.59
2018-10-09T08:16:56.357Z,11.46
2018-10-09T08:20:00.963Z,11.39
2018-10-09T08:23:05.728Z,11.25
2018-10-09T08:26:10.477Z,11.43
2018-10-09T08:29:15.243Z,11.73
2018-10-09T08:32:19.969Z,11.94
2018-10-09T08:35:24.503Z,12.10
2018-10-09T08:38:30.115Z,12.01
2018-10-09T08:41:34.727Z,11.80
2018-10-09T08:44:39.393Z,11.96
2018-10-09T08:47:44.111Z,12.60
2018-10-09T08:50:48.799Z,12.38
2018-10-09T08:53:53.856Z,12.57
2018-10-09T08:56:58.480Z,12.39
2018-10-09T09:00:03.132Z,12.59
2018-10-09T09:03:08.346Z,12.55
2018-10-09T09:06:12.996Z,12.41
2018-10-09T09:09:17.834Z,12.84
2018-10-09T09:12:22.642Z,12.73
2018-10-09T09:15:27.479Z,12.72
2018-10-09T09:18:32.129Z,12.79
2018-10-09T09:21:37.114Z,12.78
2018-10-09T09:24:41.853Z,13.22
2018-10-09T09:27:46.549Z,13.06
2018-10-09T09:30:51.355Z,13.82
2018-10-09T09:33:56.048Z,13.47
2018-10-09T09:37:00.738Z,14.15
2018-10-09T09:40:05.455Z,14.43
2018-10-09T09:43:10.054Z,14.54
2018-10-09T09:46:15.061Z,14.68
2018-10-09T09:49:20.094Z,14.41
2018-10-09T09:52:25.076Z,14.58
2018-10-09T09:55:29.998Z,14.68
2018-10-09T09:58:34.986Z,14.52
2018-10-09T10:01:43.904Z,14.68
2018-10-09T10:04:48.555Z,14.69
2018-10-09T10:07:53.590Z,14.40
2018-10-09T10:10:58.467Z,14.29
2018-10-09T10:14:03.193Z,14.19
2018-10-09T10:17:07.870Z,14.17
2018-10-09T10:20:13.256Z,14.51
2018-10-09T10:23:18.232Z,14.32
2018-10-09T10:26:23.065Z,14.46
2018-10-09T10:29:27.914Z,14.17
2018-10-09T10:32:32.552Z,14.18
2018-10-09T10:35:37.174Z,14.53
2018-10-09T10:38:41.833Z,14.81
2018-10-09T10:41:46.633Z,15.21
2018-10-09T10:44:51.210Z,15.52
2018-10-09T10:47:55.879Z,15.27
2018-10-09T10:51:00.571Z,15.49
2018-10-09T10:54:05.470Z,15.84
2018-10-09T10:57:10.029Z,16.48
2018-10-09T11:00:14.795Z,16.17
2018-10-09T11:03:19.497Z,16.27
2018-10-09T11:06:24.215Z,16.29
2018-10-09T11:09:28.899Z,16.12
2018-10-09T11:12:33.535Z,15.91
2018-10-09T11:15:38.155Z,15.88
2018-10-09T11:18:42.977Z,15.54
2018-10-09T11:21:47.770Z,16.12
2018-10-09T11:24:53.263Z,15.81
2018-10-09T11:27:57.838Z,15.62
2018-10-09T11:31:02.456Z,15.70
2018-10-09T11:34:07.194Z,15.21
2018-10-09T11:37:12.451Z,15.37
2018-10-09T11:40:17.431Z,15.34
2018-10-09T11:43:22.020Z,15.48
2018-10-09T11:46:26.818Z,15.58
2018-10-09T11:49:31.648Z,15.73
2018-10-09T11:52:36.478Z,15.64
2018-10-09T11:55:41.081Z,16.10
2018-10-09T11:58:45.900Z,16.67
2018-10-09T12:01:50.669Z,16.73
2018-10-09T12:04:55.288Z,16.55
2018-10-09T12:07:59.897Z,17.00
2018-10-09T12:11:04.994Z,16.80
2018-10-09T12:14:09.973Z,17.07
2018-10-09T12:17:14.593Z,17.29
2018-10-09T12:20:19.417Z,17.02
2018-10-09T12:23:24.109Z,17.04
2018-10-09T12:26:28.892Z,16.97
2018-10-09T12:29:33.667Z,17.21
2018-10-09T12:32:38.223Z,17.36
2018-10-09T12:35:43.856Z,17.53
2018-10-09T12:38:48.600Z,17.33
2018-10-09T12:41:53.261Z,17.73
2018-10-09T12:44:58.009Z,17.99
2018-10-09T12:48:02.838Z,18.28
2018-10-09T12:51:07.752Z,18.36
2018-10-09T12:54:12.480Z,18.07
2018-10-09T12:57:17.804Z,17.77
2018-10-09T13:00:22.937Z,17.99
2018-10-09T13:03:27.581Z,17.65
2018-10-09T13:06:32.321Z,17.82
2018-10-09T13:09:37.396Z,17.84
2018-10-09T13:12:42.306Z,18.21
2018-10-09T13:15:46.999Z,18.57
2018-10-09T13:18:51.910Z,18.57
2018-10-09T13:21:56.962Z,18.19
2018-10-09T13:25:01.453Z,18.58
2018-10-09T13:28:06.369Z,18.61
2018-10-09T13:31:11.283Z,18.39
2018-10-09T13:34:15.935Z,18.98
2018-10-09T13:37:20.549Z,18.88
2018-10-09T13:40:25.151Z,19.02
2018-10-09T13:43:29.889Z,19.24
2018-10-09T13:46:35.028Z,19.45
2018-10-09T13:49:39.815Z,19.50
2018-10-09T13:52:44.594Z,19.25
2018-10-09T13:55:49.329Z,19.04
2018-10-09T13:58:54.219Z,19.32
2018-10-09T14:01:58.962Z,19.30
2018-10-09T14:05:03.798Z,19.38
2018-10-09T14:08:08.560Z,19.71
2018-10-09T14:11:13.280Z,19.54
2018-10-09T14:14:18.061Z,19.51
2018-10-09T14:17:22.884Z,19.66
2018-10-09T14:20:27.826Z,19.52
2018-10-09T14:23:32.529Z,19.28
2018-10-09T14:26:37.610Z,19.55
2018-10-09T14:29:44.853Z,19.33
2018-10-09T14:32:49.549Z,19.69
2018-10-09T14:35:54.305Z,19.28
2018-10-09T14:38:58.990Z,19.16
2018-10-09T14:42:03.533Z,19.17
2018-10-09T14:45:08.297Z,19.36
2018-10-09T14:48:12.955Z,19.31
2018-10-09T14:51:17.639Z,19.04
2018-10-09T14:54:22.454Z,19.08
2018-10-09T14:57:27.142Z,18.88
2018-10-09T15:00:31.853Z,18.65
2018-10-09T15:03:36.468Z,18.55
2018-10-09T15:06:42.258Z,18.47
2018-10-09T15:09:54.344Z,18.33
2018-10-09T15:12:59.763Z,18.26
2018-10-09T15:16:04.450Z,18.25
2018-10-09T15:19:09.501Z,18.04
2018-10-09T15:22:14.297Z,17.95
2018-10-09T15:25:19.431Z,17.84
2018-10-09T15:28:24.229Z,17.80
2018-10-09T15:31:29.055Z,17.84
2018-10-09T15:34:33.877Z,17.84
2018-10-09T15:37:38.629Z,17.77
2018-10-09T15:40:43.647Z,17.73
2018-10-09T15:43:48.509Z,17.55
2018-10-09T15:46:53.299Z,17.40
2018-10-09T15:49:58.082Z,17.18
2018-10-09T15:53:02.882Z,17.05
2018-10-09T15:56:07.844Z,17.01
2018-10-09T15:59:13.453Z,16.98
2018-10-09T16:02:18.370Z,16.90
2018-10-09T16:05:23.062Z,16.76
2018-10-09T16:08:27.664Z,16.54
2018-10-09T16:11:32.473Z,16.45
2018-10-09T16:14:37.058Z,16.30
2018-10-09T16:17:42.180Z,16.11
2018-10-09T16:20:46.816Z,15.97
2018-10-09T16:23:51.278Z,15.84
2018-10-09T16:26:55.933Z,15.72
2018-10-09T16:30:00.618Z,15.66
2018-10-09T16:33:05.995Z,15.51
2018-10-09T16:36:10.903Z,15.30
2018-10-09T16:39:15.585Z,15.13
2018-10-09T16:42:20.296Z,14.85
2018-10-09T16:45:24.937Z,14.60
2018-10-09T16:48:29.652Z,14.38
2018-10-09T16:51:34.289Z,14.28
2018-10-09T16:54:39.190Z,14.12
2018-10-09T16:57:43.995Z,14.08
2018-10-09T17:00:48.831Z,14.09
2018-10-09T17:03:53.695Z,13.96
2018-10-09T17:06:58.320Z,13.84
2018-10-09T17:10:03.260Z,13.58
2018-10-09T17:13:08.145Z,13.44
2018-10-09T17:16:13.080Z,13.32
2018-10-09T17:19:17.800Z,13.18
2018-10-09T17:22:22.715Z,13.11
2018-10-09T17:25:27.367Z,13.03
2018-10-09T17:28:32.134Z,12.98
2018-10-09T17:31:36.895Z,12.94
2018-10-09T17:34:41.481Z,12.79
2018-10-09T17:37:46.223Z,12.71
2018-10-09T17:40:50.988Z,12.72
2018-10-09T17:43:55.662Z,12.57
2018-10-09T17:47:04.516Z,12.47
2018-10-09T17:50:09.727Z,12.47
2018-10-09T17:53:14.608Z,12.34
2018-10-09T17:56:19.476Z,12.42
2018-10-09T17:59:24.085Z,12.34
2018-10-09T18:02:28.748Z,12.31
2018-10-09T18:05:33.357Z,12.37
2018-10-09T18:08:38.125Z,12.25
2018-10-09T18:11:42.720Z,12.13
2018-10-09T18:14:47.463Z,12.14
2018-10-09T18:17:52.200Z,12.00
2018-10-09T18:20:56.819Z,12.13
2018-10-09T18:24:01.455Z,12.04
2018-10-09T18:27:06.335Z,11.86
2018-10-09T18:30:11.637Z,11.76
2018-10-09T18:33:16.836Z,11.72
2018-10-09T18:36:21.483Z,11.65
2018-10-09T18:39:26.520Z,11.51
2018-10-09T18:42:31.584Z,11.46
2018-10-09T18:45:36.645Z,11.56
2018-10-09T18:48:41.629Z,11.68
2018-10-09T18:51:46.453Z,11.54
2018-10-09T18:54:51.547Z,11.41
2018-10-09T18:57:56.297Z,11.48
2018-10-09T19:01:01.330Z,11.43
2018-10-09T19:04:06.054Z,11.35
2018-10-09T19:07:10.925Z,11.24
2018-10-09T19:10:15.756Z,11.16
2018-10-09T19:13:20.806Z,11.33
2018-10-09T19:16:26.120Z,11.30
2018-10-09T19:19:30.954Z,11.23
2018-10-09T19:22:36.000Z,11.21
2018-10-09T19:25:40.931Z,11.11
2018-10-09T19:28:45.669Z,10.98
2018-10-09T19:31:50.587Z,10.96
2018-10-09T19:34:55.340Z,11.05
2018-10-09T19:38:00.321Z,10.84
2018-10-09T19:41:05.134Z,10.72
2018-10-09T19:44:09.990Z,10.61
2018-10-09T19:47:14.796Z,10.62
2018-10-09T19:50:19.629Z,10.63
2018-10-09T19:53:24.559Z,10.61
2018-10-09T19:56:29.318Z,10.66
2018-10-09T19:59:34.126Z,10.65
2018-10-09T20:02:38.908Z,10.65
2018-10-09T20:05:45.114Z,10.73
2018-10-09T20:08:50.258Z,10.72
2018-10-09T20:11:54.927Z,10.62
2018-10-09T20:14:59.863Z,10.44
2018-10-09T20:18:04.611Z,10.36
2018-10-09T20:21:09.813Z,10.17
2018-10-09T20:24:14.706Z,10.10
2018-10-09T20:27:19.387Z,10.02
2018-10-09T20:30:23.963Z,9.92
2018-10-09T20:33:28.827Z,9.85
2018-10-09T20:36:33.455Z,9.92
2018-10-09T20:39:38.087Z,10.04
2018-10-09T20:42:42.847Z,9.96
2018-10-09T20:45:47.418Z,9.87
2018-10-09T20:48:52.103Z,9.93
2018-10-09T20:51:56.797Z,10.05
2018-10-09T20:55:01.485Z,10.08
2018-10-09T20:58:06.272Z,10.04
2018-10-09T21:01:10.852Z,9.93
2018-10-09T21:04:15.516Z,9.94
2018-10-09T21:07:20.074Z,9.74
2018-10-09T21:10:24.774Z,9.66
2018-10-09T21:13:29.447Z,9.57
2018-10-09T21:16:34.053Z,9.55
2018-10-09T21:19:39.021Z,9.54
2018-10-09T21:22:43.631Z,9.55
2018-10-09T21:25:48.203Z,9.58
2018-10-09T21:28:52.806Z,9.62
2018-10-09T21:31:57.396Z,9.71
2018-10-09T21:35:02.181Z,9.80
2018-10-09T21:38:07.113Z,9.69
2018-10-09T21:41:11.798Z,9.58
2018-10-09T21:44:16.512Z,9.54
2018-10-09T21:47:21.177Z,9.49
2018-10-09T21:50:25.963Z,9.47
2018-10-09T21:53:30.622Z,9.61
2018-10-09T21:56:35.268Z,9.60
2018-10-09T21:59:39.927Z,9.74
2018-10-09T22:02:44.609Z,9.73
2018-10-09T22:05:49.177Z,9.84
2018-10-09T22:08:53.855Z,9.83
2018-10-09T22:11:58.408Z,9.91
2018-10-09T22:15:03.110Z,10.00
2018-10-09T22:18:07.724Z,10.07
2018-10-09T22:21:12.478Z,10.16
2018-10-09T22:24:17.524Z,10.38
2018-10-09T22:27:22.732Z,10.47
2018-10-09T22:30:27.348Z,10.49
2018-10-09T22:33:31.901Z,10.52
2018-10-09T22:36:36.475Z,10.58
2018-10-09T22:39:41.225Z,10.58
2018-10-09T22:42:45.901Z,10.62
2018-10-09T22:45:50.485Z,10.65
2018-10-09T22:48:55.175Z,10.53
2018-10-09T22:51:59.965Z,10.57
2018-10-09T22:55:04.787Z,10.56
2018-10-09T22:58:09.373Z,10.58
2018-10-09T23:01:13.975Z,10.54
2018-10-09T23:04:18.689Z,10.56
2018-10-09T23:07:23.710Z,10.58
2018-10-09T23:10:28.375Z,10.61
2018-10-09T23:13:33.166Z,10.54
2018-10-09T23:16:38.355Z,10.54
2018-10-09T23:19:42.969Z,10.50
2018-10-09T23:22:47.605Z,10.52
2018-10-09T23:25:52.541Z,10.48
2018-10-09T23:28:57.198Z,10.50
2018-10-09T23:32:01.733Z,10.50
2018-10-09T23:35:06.562Z,10.53
2018-10-09T23:38:11.138Z,10.41
2018-10-09T23:41:15.859Z,10.41
2018-10-09T23:44:20.596Z,10.38
2018-10-09T23:47:25.222Z,10.35
2018-10-09T23:50:29.896Z,10.33
2018-10-09T23:53:34.740Z,10.27
2018-10-09T23:56:39.421Z,10.18
2018-10-09T23:59:44.066Z,10.22
